Time;durP1;ratioP1;P1;durP2;ratioP2;P2;SDS_P1;SDS_P2;PMS_P1;PMS_P2;Temp;Humidity;BMP_temperature;BMP_pressure;BME280_temperature;BME280_humidity;BME280_pressure;Samples;Min_cycle;Max_cycle;Signal;HPM_P1;HPM_P2
2021/10/06 00:00:18;;;;;;;15.55;5.28;;;;;;;17.69;75.63;101208.25;5094936;28;20131;-70
2021/10/06 00:02:45;;;;;;;15.32;4.40;;;;;;;17.68;75.46;101215.06;5116476;28;20083;-69
2021/10/06 00:05:12;;;;;;;21.00;4.55;;;;;;;17.65;75.30;101207.22;5110925;28;20465;-69
2021/10/06 00:07:39;;;;;;;17.20;4.72;;;;;;;17.66;75.68;101210.88;5096865;28;20094;-69
2021/10/06 00:10:07;;;;;;;11.18;4.57;;;;;;;17.69;75.48;101211.09;5095982;28;20098;-66
2021/10/06 00:12:35;;;;;;;12.45;4.38;;;;;;;17.71;75.66;101210.78;5096923;28;20048;-67
2021/10/06 00:15:04;;;;;;;15.35;4.80;;;;;;;17.70;75.54;101198.63;5098916;28;20561;-64
2021/10/06 00:17:31;;;;;;;20.93;5.87;;;;;;;17.73;75.35;101220.59;5115818;28;20082;-63
2021/10/06 00:19:58;;;;;;;12.57;4.88;;;;;;;17.71;75.03;101213.63;5115642;28;20122;-66
2021/10/06 00:22:25;;;;;;;14.18;4.75;;;;;;;17.68;74.55;101212.25;5099274;28;20060;-64
2021/10/06 00:24:51;;;;;;;10.25;4.40;;;;;;;17.50;74.79;101196.19;5091298;28;20484;-66
2021/10/06 00:27:18;;;;;;;13.75;5.38;;;;;;;17.49;74.17;101195.38;5100912;28;20080;-65
2021/10/06 00:29:45;;;;;;;21.70;6.18;;;;;;;17.54;74.58;101211.41;5099703;28;20124;-65
2021/10/06 00:32:12;;;;;;;16.40;6.40;;;;;;;17.39;74.63;101191.91;5104561;28;20082;-66
2021/10/06 00:34:39;;;;;;;15.00;5.32;;;;;;;17.32;74.46;101188.66;5078316;28;20443;-71
2021/10/06 00:37:06;;;;;;;13.57;5.80;;;;;;;17.18;74.40;101166.88;5095123;28;20083;-72
2021/10/06 00:39:33;;;;;;;11.00;6.15;;;;;;;17.34;74.38;101201.31;5095002;28;20124;-66
2021/10/06 00:41:59;;;;;;;16.30;5.50;;;;;;;17.16;74.01;101183.31;5103800;28;20126;-68
2021/10/06 00:44:32;;;;;;;16.52;5.95;;;;;;;17.23;74.31;101202.63;5107702;28;20077;-68
2021/10/06 00:46:59;;;;;;;18.55;7.00;;;;;;;17.19;74.11;101210.88;5114844;28;20468;-64
2021/10/06 00:49:26;;;;;;;15.30;7.05;;;;;;;17.13;74.38;101208.47;5112926;28;20055;-66
2021/10/06 00:51:53;;;;;;;19.48;6.03;;;;;;;17.02;74.45;101194.53;5115514;27;20074;-67
2021/10/06 00:54:20;;;;;;;19.23;6.20;;;;;;;17.08;74.21;101209.41;5114608;28;20554;-64
2021/10/06 00:56:47;;;;;;;19.58;6.03;;;;;;;17.09;74.44;101198.94;5105600;28;20078;-68
2021/10/06 00:59:14;;;;;;;17.23;6.13;;;;;;;16.93;74.28;101175.81;5091124;28;20119;-68
2021/10/06 01:01:41;;;;;;;12.52;6.15;;;;;;;16.99;74.06;101200.81;5114094;27;20075;-65
2021/10/06 01:04:08;;;;;;;17.83;6.72;;;;;;;16.95;73.90;101204.53;5111505;28;20048;-63
2021/10/06 01:06:35;;;;;;;13.40;6.45;;;;;;;16.86;74.03;101203.59;5106764;28;20079;-62
2021/10/06 01:09:02;;;;;;;14.20;6.47;;;;;;;16.80;74.06;101191.53;5109918;28;20123;-64
2021/10/06 01:11:29;;;;;;;20.58;6.45;;;;;;;16.78;74.04;101191.81;5091543;28;20068;-65
2021/10/06 01:13:57;;;;;;;21.98;6.68;;;;;;;16.85;74.35;101210.34;5099142;28;20126;-64
2021/10/06 01:16:25;;;;;;;18.23;5.97;;;;;;;16.74;73.90;101187.09;5109078;28;20143;-65
2021/10/06 01:18:52;;;;;;;14.90;6.13;;;;;;;16.84;73.95;101211.50;5107048;28;20412;-67
2021/10/06 01:21:20;;;;;;;20.58;5.75;;;;;;;16.83;74.24;101204.19;5104341;28;20082;-66
2021/10/06 01:23:49;;;;;;;17.40;7.07;;;;;;;16.83;74.22;101201.38;5099260;28;20080;-66
2021/10/06 01:26:20;;;;;;;14.15;6.05;;;;;;;16.82;73.96;101203.34;5104758;28;20487;-67
2021/10/06 01:28:53;;;;;;;19.10;6.07;;;;;;;16.80;73.97;101203.66;5113570;28;20551;-68
2021/10/06 01:31:27;;;;;;;18.95;6.55;;;;;;;16.78;74.39;101194.63;5110777;28;20545;-67
2021/10/06 01:33:54;;;;;;;17.92;6.65;;;;;;;16.81;74.42;101196.03;5089569;28;20055;-60
2021/10/06 01:36:22;;;;;;;18.40;7.30;;;;;;;16.86;74.86;101203.59;5105480;28;20135;-66
2021/10/06 01:38:48;;;;;;;13.52;6.25;;;;;;;16.88;74.80;101204.94;5081531;28;20139;-67
2021/10/06 01:41:15;;;;;;;21.88;7.10;;;;;;;16.94;74.81;101195.25;5101627;28;20163;-67
2021/10/06 01:43:42;;;;;;;19.02;6.95;;;;;;;16.98;74.97;101192.63;5093933;28;20076;-67
2021/10/06 01:46:09;;;;;;;16.80;6.05;;;;;;;17.02;75.17;101199.34;5097425;28;20122;-67
2021/10/06 01:48:36;;;;;;;27.05;6.85;;;;;;;17.10;75.53;101200.63;5091889;28;20123;-67
2021/10/06 01:51:03;;;;;;;14.15;6.68;;;;;;;17.14;75.47;101196.88;5106845;28;20086;-68
2021/10/06 01:53:38;;;;;;;15.68;6.00;;;;;;;17.15;75.19;101189.25;5106821;28;20148;-68
2021/10/06 01:56:05;;;;;;;17.50;6.88;;;;;;;17.11;74.72;101186.19;5095806;28;20515;-69
2021/10/06 01:58:32;;;;;;;11.52;5.20;;;;;;;16.85;74.69;101156.75;5117260;27;20542;-61
2021/10/06 02:01:00;;;;;;;16.23;5.40;;;;;;;16.79;74.55;101153.19;5107139;28;20547;-61
2021/10/06 02:03:27;;;;;;;16.95;5.90;;;;;;;16.94;74.55;101180.31;5100140;28;20407;-61
2021/10/06 02:05:55;;;;;;;14.13;5.10;;;;;;;16.87;74.08;101179.84;5097220;28;20047;-61
2021/10/06 02:08:22;;;;;;;14.88;5.60;;;;;;;16.78;74.40;101166.44;5097604;28;20091;-61
2021/10/06 02:10:49;;;;;;;20.92;5.68;;;;;;;16.79;74.08;101176.59;5109092;28;20144;-61
2021/10/06 02:13:16;;;;;;;14.50;7.63;;;;;;;16.68;74.44;101163.75;5096372;28;20130;-66
2021/10/06 02:15:43;;;;;;;13.63;6.70;;;;;;;16.78;74.19;101172.06;5105515;28;20160;-67
2021/10/06 02:18:10;;;;;;;22.25;7.75;;;;;;;16.70;74.84;101158.66;5095793;28;20044;-68
2021/10/06 02:20:37;;;;;;;14.48;6.45;;;;;;;16.75;74.45;101161.44;5106545;28;20054;-68
2021/10/06 02:23:03;;;;;;;24.10;8.02;;;;;;;16.77;74.51;101159.13;5104517;28;20127;-67
2021/10/06 02:25:30;;;;;;;15.27;8.48;;;;;;;16.77;74.64;101145.03;5087673;28;20043;-65
2021/10/06 02:27:57;;;;;;;18.88;7.18;;;;;;;16.74;74.86;101137.19;5094304;28;20480;-65
2021/10/06 02:30:24;;;;;;;14.75;6.55;;;;;;;16.92;74.99;101157.19;5096358;28;22508;-66
2021/10/06 02:32:51;;;;;;;16.90;7.43;;;;;;;16.92;75.02;101155.22;5112261;28;20067;-66
2021/10/06 02:35:18;;;;;;;20.45;7.78;;;;;;;16.97;75.23;101151.47;5094251;28;20139;-64
2021/10/06 02:37:45;;;;;;;20.15;6.75;;;;;;;16.95;75.14;101150.94;5095606;28;20145;-65
2021/10/06 02:40:16;;;;;;;15.52;6.97;;;;;;;16.90;75.41;101143.41;5081076;28;20042;-64
2021/10/06 02:42:45;;;;;;;18.20;7.13;;;;;;;16.94;75.46;101140.81;5107964;28;20176;-66
2021/10/06 02:45:14;;;;;;;16.55;6.32;;;;;;;16.97;75.32;101140.19;5095165;28;20091;-65
2021/10/06 02:47:41;;;;;;;19.70;7.05;;;;;;;16.90;75.69;101120.00;5094682;28;20117;-63
2021/10/06 02:50:11;;;;;;;19.98;7.78;;;;;;;16.92;75.42;101114.88;5103768;28;20080;-62
2021/10/06 02:52:38;;;;;;;;;;;;;;;16.99;75.39;101135.06;5094048;28;20080;-63
2021/10/06 02:55:06;;;;;;;12.13;6.20;;;;;;;17.00;75.36;101137.59;5099534;28;20027;-65
2021/10/06 02:57:34;;;;;;;21.17;6.63;;;;;;;16.97;75.54;101129.72;5097148;28;20072;-65
2021/10/06 03:00:05;;;;;;;15.45;6.50;;;;;;;16.90;75.54;101128.47;5093522;28;20127;-64
2021/10/06 03:02:31;;;;;;;14.30;6.82;;;;;;;16.77;76.14;101122.47;5100821;28;20118;-62
2021/10/06 03:04:58;;;;;;;15.38;6.32;;;;;;;16.80;76.37;101135.13;5084849;28;20079;-63
2021/10/06 03:07:25;;;;;;;15.15;7.88;;;;;;;16.80;75.84;101138.78;5108366;28;20074;-64
2021/10/06 03:09:52;;;;;;;16.52;7.32;;;;;;;16.74;76.31;101125.91;5101381;28;20040;-64
2021/10/06 03:12:19;;;;;;;13.25;6.65;;;;;;;16.79;76.20;101139.94;5095467;28;20075;-63
2021/10/06 03:14:46;;;;;;;12.57;5.82;;;;;;;16.74;76.05;101139.13;5093856;28;20079;-65
2021/10/06 03:17:12;;;;;;;17.20;6.32;;;;;;;16.71;76.06;101137.75;5092749;28;20404;-65
2021/10/06 03:19:39;;;;;;;11.52;6.68;;;;;;;16.73;75.74;101127.03;5093134;28;20131;-65
2021/10/06 03:22:06;;;;;;;14.35;6.78;;;;;;;16.76;75.77;101137.72;5100763;28;20135;-64
2021/10/06 03:24:33;;;;;;;11.88;6.35;;;;;;;16.71;75.84;101122.81;5099219;27;20139;-64
2021/10/06 03:26:59;;;;;;;14.35;6.88;;;;;;;16.69;76.27;101125.97;5101651;28;20126;-64
2021/10/06 03:29:28;;;;;;;11.90;6.13;;;;;;;16.74;76.26;101131.53;5107940;28;20067;-64
2021/10/06 03:31:54;;;;;;;13.57;7.20;;;;;;;16.75;76.27;101116.31;5098397;28;20118;-65
2021/10/06 03:34:22;;;;;;;14.40;6.70;;;;;;;16.79;76.16;101116.53;5094203;28;20078;-64
2021/10/06 03:36:48;;;;;;;17.58;7.45;;;;;;;16.83;75.88;101116.75;5106746;28;20043;-64
2021/10/06 03:39:15;;;;;;;16.08;6.60;;;;;;;16.85;75.77;101108.78;5105713;28;20101;-64
2021/10/06 03:41:42;;;;;;;14.00;6.20;;;;;;;16.80;75.10;101113.38;5092190;27;20040;-67
2021/10/06 03:44:09;;;;;;;13.27;7.03;;;;;;;16.76;75.26;101095.41;5114560;28;20043;-66
2021/10/06 03:46:36;;;;;;;13.15;6.57;;;;;;;16.66;75.44;101087.09;5093049;28;20151;-68
2021/10/06 03:49:02;;;;;;;12.95;6.35;;;;;;;16.65;75.67;101093.03;5103613;28;20547;-68
2021/10/06 03:51:29;;;;;;;13.68;7.38;;;;;;;16.69;75.34;101103.41;5100247;28;20068;-69
2021/10/06 03:53:56;;;;;;;13.05;6.68;;;;;;;16.66;75.98;101103.19;5097875;28;20118;-69
2021/10/06 03:56:24;;;;;;;15.60;6.90;;;;;;;16.58;75.95;101099.06;5099465;28;20138;-68
2021/10/06 03:58:51;;;;;;;14.55;7.78;;;;;;;16.49;75.45;101081.19;5094252;28;20124;-67
2021/10/06 04:01:18;;;;;;;9.43;5.43;;;;;;;16.51;75.81;101118.34;5092525;28;20048;-67
2021/10/06 04:03:45;;;;;;;9.13;5.43;;;;;;;16.33;75.74;101112.44;5106215;28;20047;-69
2021/10/06 04:06:11;;;;;;;14.88;4.38;;;;;;;16.28;75.57;101118.16;5079989;28;20078;-68
2021/10/06 04:08:38;;;;;;;22.80;4.75;;;;;;;16.20;76.01;101110.38;5106978;28;20567;-69
2021/10/06 04:11:05;;;;;;;40.53;5.55;;;;;;;16.11;75.95;101115.88;5091192;28;20136;-67
2021/10/06 04:13:32;;;;;;;39.85;5.60;;;;;;;15.94;76.25;101106.28;5090307;28;20067;-67
2021/10/06 04:15:59;;;;;;;17.17;4.60;;;;;;;15.84;76.33;101110.91;5096884;28;20079;-67
2021/10/06 04:18:25;;;;;;;19.23;5.20;;;;;;;15.79;76.72;101113.78;5109550;28;20142;-66
2021/10/06 04:20:52;;;;;;;32.92;5.47;;;;;;;15.68;76.70;101115.06;5104594;28;20420;-66
2021/10/06 04:23:19;;;;;;;41.15;5.35;;;;;;;15.52;76.97;101099.47;5096740;28;20475;-66
2021/10/06 04:25:46;;;;;;;57.45;6.20;;;;;;;15.48;77.28;101113.28;5093800;28;20127;-67
2021/10/06 04:28:13;;;;;;;26.88;4.35;;;;;;;15.44;77.51;101131.09;5107260;28;20074;-68
2021/10/06 04:30:39;;;;;;;26.23;4.13;;;;;;;15.22;78.22;101118.41;5107896;28;20214;-66
2021/10/06 04:33:06;;;;;;;7.32;2.30;;;;;;;15.05;78.97;101129.28;5101735;28;20131;-68
2021/10/06 04:35:33;;;;;;;25.48;4.35;;;;;;;14.92;79.11;101128.81;5110073;28;20039;-70
2021/10/06 04:38:00;;;;;;;36.55;6.22;;;;;;;14.84;79.65;101109.78;5104995;28;20051;-68
2021/10/06 04:40:27;;;;;;;18.15;5.53;;;;;;;14.91;79.80;101129.97;5099871;28;20131;-67
2021/10/06 04:42:54;;;;;;;11.52;5.22;;;;;;;14.81;80.07;101115.16;5094803;28;20127;-67
2021/10/06 04:45:22;;;;;;;22.73;5.57;;;;;;;14.80;80.07;101110.66;5102352;28;20166;-64
2021/10/06 04:47:48;;;;;;;25.75;6.65;;;;;;;14.92;79.66;101119.53;5098918;28;20047;-65
2021/10/06 04:50:15;;;;;;;20.33;6.70;;;;;;;15.00;79.88;101137.75;5103406;28;20134;-61
2021/10/06 04:52:42;;;;;;;17.88;6.70;;;;;;;15.00;79.39;101123.69;5092283;28;20139;-61
2021/10/06 04:55:09;;;;;;;16.35;6.90;;;;;;;15.08;79.50;101121.09;5107301;28;20491;-61
2021/10/06 04:57:36;;;;;;;20.50;7.00;;;;;;;15.21;78.95;101122.31;5097458;28;20040;-61
2021/10/06 05:00:04;;;;;;;17.77;7.63;;;;;;;15.15;79.13;101106.66;5101199;28;20075;-63
2021/10/06 05:02:30;;;;;;;19.35;7.45;;;;;;;15.34;78.94;101127.25;5100805;28;20147;-63
2021/10/06 05:04:57;;;;;;;17.90;8.23;;;;;;;15.49;78.44;101133.88;5094321;28;20087;-61
2021/10/06 05:07:24;;;;;;;19.13;8.45;;;;;;;15.64;78.36;101130.84;5095212;28;20135;-69
2021/10/06 05:09:51;;;;;;;20.85;9.80;;;;;;;15.77;78.01;101140.59;5106283;28;20134;-66
2021/10/06 05:12:18;;;;;;;21.48;9.63;;;;;;;15.76;77.74;101114.41;5108425;27;20093;-65
2021/10/06 05:14:44;;;;;;;35.72;10.18;;;;;;;15.98;77.92;101132.69;5096633;28;20095;-66
2021/10/06 05:17:11;;;;;;;25.02;8.90;;;;;;;16.08;77.93;101129.75;5094271;28;20135;-65
2021/10/06 05:19:38;;;;;;;20.67;10.00;;;;;;;16.15;77.89;101124.56;5111248;28;20142;-66
2021/10/06 05:22:09;;;;;;;23.52;9.88;;;;;;;16.16;77.42;101112.13;5083870;28;20040;-64
2021/10/06 05:24:36;;;;;;;21.67;9.85;;;;;;;16.29;77.61;101113.34;5102059;28;20138;-63
2021/10/06 05:27:03;;;;;;;26.45;10.38;;;;;;;16.33;77.58;101122.88;5102915;28;20130;-64
2021/10/06 05:29:33;;;;;;;18.42;8.50;;;;;;;16.36;77.52;101125.09;5097956;28;20058;-62
2021/10/06 05:32:03;;;;;;;24.13;9.77;;;;;;;16.40;77.51;101122.50;5103426;28;20139;-59
2021/10/06 05:34:31;;;;;;;22.20;9.18;;;;;;;16.27;77.60;101110.84;5106478;28;20131;-60
2021/10/06 05:36:59;;;;;;;29.92;10.05;;;;;;;16.32;77.66;101119.22;5095709;28;20058;-60
2021/10/06 05:39:26;;;;;;;27.10;10.52;;;;;;;16.33;77.19;101126.53;5098278;28;20048;-59
2021/10/06 05:41:52;;;;;;;25.60;10.68;;;;;;;16.46;77.44;101141.00;5090251;28;20163;-60
2021/10/06 05:44:19;;;;;;;19.67;9.07;;;;;;;16.30;77.29;101118.69;5097901;28;20047;-64
2021/10/06 05:46:46;;;;;;;24.02;8.93;;;;;;;16.32;77.59;101129.66;5087612;28;20040;-60
2021/10/06 05:49:14;;;;;;;18.10;9.07;;;;;;;16.33;77.31;101120.88;5083879;28;20134;-57
2021/10/06 05:51:41;;;;;;;24.20;9.07;;;;;;;16.38;77.54;101122.81;5098378;28;20136;-67
2021/10/06 05:54:08;;;;;;;14.05;6.95;;;;;;;16.27;77.68;101122.13;5106524;28;20067;-63
2021/10/06 05:56:35;;;;;;;16.80;8.23;;;;;;;16.16;77.98;101131.84;5098811;28;20102;-61
2021/10/06 05:59:02;;;;;;;18.80;9.18;;;;;;;16.04;77.97;101123.88;5099897;28;20127;-61
2021/10/06 06:01:29;;;;;;;17.00;8.25;;;;;;;16.06;77.88;101113.13;5097969;28;20515;-60
2021/10/06 06:03:56;;;;;;;14.45;6.97;;;;;;;16.13;77.87;101126.81;5096246;28;20105;-61
2021/10/06 06:06:23;;;;;;;14.50;7.20;;;;;;;16.17;77.48;101136.38;5107468;27;20506;-61
2021/10/06 06:08:50;;;;;;;14.40;6.95;;;;;;;16.08;77.68;101130.56;5102591;28;20079;-61
2021/10/06 06:11:17;;;;;;;15.07;7.80;;;;;;;16.08;77.46;101135.38;5109322;28;20054;-61
2021/10/06 06:13:44;;;;;;;17.92;7.13;;;;;;;16.12;77.49;101136.44;5104601;28;20441;-61
2021/10/06 06:16:11;;;;;;;14.55;7.47;;;;;;;16.13;77.38;101142.91;5094273;28;20477;-61
2021/10/06 06:18:38;;;;;;;18.00;8.32;;;;;;;16.07;77.19;101130.88;5109070;27;20071;-61
2021/10/06 06:21:05;;;;;;;18.67;9.57;;;;;;;16.14;77.10;101133.31;5108602;28;20135;-61
2021/10/06 06:23:32;;;;;;;20.85;8.13;;;;;;;16.17;77.43;101143.97;5112826;28;20098;-61
2021/10/06 06:25:59;;;;;;;14.23;6.85;;;;;;;16.15;77.70;101135.84;5101049;27;20138;-61
2021/10/06 06:28:26;;;;;;;16.95;8.13;;;;;;;16.23;77.10;101148.38;5093432;28;20126;-61
2021/10/06 06:30:53;;;;;;;18.25;8.35;;;;;;;16.20;77.06;101132.91;5105157;27;20074;-61
2021/10/06 06:33:20;;;;;;;13.35;7.70;;;;;;;16.32;77.37;101138.94;5101618;28;20135;-65
2021/10/06 06:35:47;;;;;;;20.23;7.95;;;;;;;16.43;76.77;101135.97;5100364;28;20139;-61
2021/10/06 06:38:14;;;;;;;13.82;7.18;;;;;;;16.47;76.74;101143.50;5097324;28;20123;-65
2021/10/06 06:40:41;;;;;;;23.02;8.80;;;;;;;16.48;76.18;101138.72;5101876;28;20126;-64
2021/10/06 06:43:08;;;;;;;15.30;7.97;;;;;;;16.52;76.21;101134.16;5095046;28;20048;-66
2021/10/06 06:45:36;;;;;;;17.90;8.90;;;;;;;16.58;76.24;101147.88;5100479;28;20078;-68
2021/10/06 06:48:04;;;;;;;15.20;7.93;;;;;;;16.48;75.83;101130.28;5096589;28;20570;-62
2021/10/06 06:50:45;;;;;;;16.13;7.72;;;;;;;16.62;76.28;101136.81;5101971;28;20044;-61
2021/10/06 06:53:12;;;;;;;15.00;7.45;;;;;;;16.64;76.07;101148.59;5095465;28;20135;-61
2021/10/06 06:55:39;;;;;;;15.98;8.75;;;;;;;16.64;75.99;101136.47;5095854;27;20130;-61
2021/10/06 06:58:06;;;;;;;17.73;8.18;;;;;;;16.67;75.68;101133.88;5100421;28;20127;-62
2021/10/06 07:00:32;;;;;;;16.42;8.38;;;;;;;16.73;76.08;101143.94;5102840;28;20127;-61
2021/10/06 07:02:59;;;;;;;21.73;8.68;;;;;;;16.76;76.04;101146.19;5103112;28;20054;-62
2021/10/06 07:05:29;;;;;;;15.65;7.65;;;;;;;16.81;76.20;101143.25;5105014;28;20052;-62
2021/10/06 07:07:56;;;;;;;17.42;7.88;;;;;;;16.79;75.83;101128.66;5104070;27;20126;-62
2021/10/06 07:10:23;;;;;;;16.73;7.88;;;;;;;16.96;76.02;101141.34;5103363;28;20043;-62
2021/10/06 07:12:50;;;;;;;18.65;6.72;;;;;;;16.85;76.06;101153.94;5107866;28;20071;-61
2021/10/06 07:15:17;;;;;;;21.60;8.35;;;;;;;16.63;76.09;101129.19;5109975;28;20127;-61
2021/10/06 07:17:43;;;;;;;16.45;8.38;;;;;;;16.48;76.29;101093.63;5104064;27;20138;-62
2021/10/06 07:20:10;;;;;;;16.17;8.23;;;;;;;16.83;76.18;101137.31;5091889;28;20102;-61
2021/10/06 07:22:38;;;;;;;13.15;8.05;;;;;;;17.02;76.21;101137.25;5101931;27;20052;-62
2021/10/06 07:25:06;;;;;;;13.85;7.57;;;;;;;17.17;75.96;101131.34;5105366;27;20144;-62
2021/10/06 07:27:33;;;;;;;13.77;8.13;;;;;;;17.33;75.87;101142.34;5097664;28;20528;-61
2021/10/06 07:30:00;;;;;;;13.50;7.30;;;;;;;17.54;75.63;101149.28;5107585;28;20075;-61
2021/10/06 07:32:27;;;;;;;15.43;7.95;;;;;;;17.64;75.82;101148.19;5083266;28;20121;-61
2021/10/06 07:34:53;;;;;;;16.70;6.32;;;;;;;17.84;75.97;101146.97;5103508;28;20083;-60
2021/10/06 07:37:20;;;;;;;10.32;6.53;;;;;;;18.04;75.55;101146.53;5109214;28;20503;-61
2021/10/06 07:39:47;;;;;;;12.88;5.82;;;;;;;18.13;75.46;101121.19;5098496;28;20101;-61
2021/10/06 07:42:15;;;;;;;8.98;5.15;;;;;;;18.46;75.36;101148.13;5107145;28;20575;-61
2021/10/06 07:44:43;;;;;;;8.50;5.43;;;;;;;18.67;75.16;101139.97;5102807;28;20040;-61
2021/10/06 07:47:10;;;;;;;12.40;5.13;;;;;;;18.86;74.74;101147.44;5101415;28;20090;-61
2021/10/06 07:49:38;;;;;;;6.40;4.00;;;;;;;18.98;74.29;101121.41;5100321;28;20555;-61
2021/10/06 07:52:05;;;;;;;8.15;4.32;;;;;;;19.26;73.33;101124.88;5097272;28;20047;-61
2021/10/06 07:54:32;;;;;;;7.25;3.97;;;;;;;19.60;72.70;101147.69;5106584;28;20399;-61
2021/10/06 07:56:58;;;;;;;8.00;3.80;;;;;;;19.92;72.06;101157.00;5101073;28;20048;-61
2021/10/06 07:59:25;;;;;;;7.30;4.10;;;;;;;19.99;71.39;101119.66;5112464;28;20131;-61
2021/10/06 08:01:52;;;;;;;6.43;4.10;;;;;;;20.47;70.96;101159.25;5107671;28;20138;-61
2021/10/06 08:04:19;;;;;;;15.23;4.32;;;;;;;20.71;70.16;101152.28;5092471;28;20055;-61
2021/10/06 08:06:46;;;;;;;9.30;4.45;;;;;;;21.02;69.89;101152.06;5095448;28;20134;-61
2021/10/06 08:09:17;;;;;;;8.45;3.97;;;;;;;21.34;68.92;101153.56;5107329;28;20444;-61
2021/10/06 08:11:43;;;;;;;6.32;4.32;;;;;;;21.59;67.78;101134.72;5105034;28;20543;-61
2021/10/06 08:14:11;;;;;;;6.97;3.90;;;;;;;22.22;66.87;101163.34;5105833;28;20048;-61
2021/10/06 08:16:37;;;;;;;9.65;4.20;;;;;;;22.72;65.74;101159.59;5099624;28;20091;-61
2021/10/06 08:19:05;;;;;;;8.60;3.47;;;;;;;23.32;64.95;101163.91;5100436;28;20132;-61
2021/10/06 08:21:32;;;;;;;5.40;3.60;;;;;;;23.96;63.35;101158.75;5092592;28;20079;-61
2021/10/06 08:23:58;;;;;;;8.13;3.40;;;;;;;24.45;62.21;101158.75;5106810;27;20043;-60
2021/10/06 08:26:25;;;;;;;4.82;3.40;;;;;;;24.84;60.81;101159.94;5105083;28;20142;-61
2021/10/06 08:28:52;;;;;;;3.45;2.83;;;;;;;25.20;59.69;101172.44;5110119;27;20151;-61
2021/10/06 08:31:20;;;;;;;5.55;2.97;;;;;;;25.48;58.67;101173.19;5106342;28;20123;-61
2021/10/06 08:33:47;;;;;;;7.03;3.00;;;;;;;25.68;57.35;101164.75;5107230;27;20525;-61
2021/10/06 08:36:14;;;;;;;4.57;2.80;;;;;;;26.16;57.22;101174.16;5102299;28;20039;-61
2021/10/06 08:38:40;;;;;;;8.02;3.50;;;;;;;26.41;55.64;101174.72;5106844;28;20040;-61
2021/10/06 08:41:07;;;;;;;5.55;2.60;;;;;;;26.77;54.68;101179.25;5098347;28;20144;-61
2021/10/06 08:43:37;;;;;;;6.43;3.28;;;;;;;26.99;53.86;101174.81;5109694;27;20587;-62
2021/10/06 08:46:04;;;;;;;6.75;2.83;;;;;;;27.00;52.56;101182.19;5102168;28;20127;-62
2021/10/06 08:48:31;;;;;;;7.07;2.92;;;;;;;27.13;51.95;101163.66;5107803;27;20444;-62
2021/10/06 08:50:58;;;;;;;6.28;3.10;;;;;;;27.56;51.66;101181.69;5105953;28;20047;-61
2021/10/06 08:53:44;;;;;;;5.85;2.92;;;;;;;27.82;51.39;101180.13;5097362;28;20048;-60
2021/10/06 08:56:11;;;;;;;5.45;2.95;;;;;;;27.77;49.28;101180.44;5105932;28;20726;-62
2021/10/06 08:58:38;;;;;;;6.45;3.35;;;;;;;27.75;48.71;101188.56;5112487;28;20078;-60
2021/10/06 09:01:05;;;;;;;7.38;3.00;;;;;;;28.04;48.71;101176.41;5108842;28;20140;-60
2021/10/06 09:03:35;;;;;;;7.95;3.03;;;;;;;28.50;47.95;101147.56;5100368;28;20101;-61
2021/10/06 09:06:06;;;;;;;5.88;2.53;;;;;;;29.13;46.79;101168.97;5094737;28;20090;-61
2021/10/06 09:08:35;;;;;;;5.93;2.85;;;;;;;29.53;45.50;101165.25;5103496;28;20048;-60
2021/10/06 09:11:04;;;;;;;5.55;2.53;;;;;;;29.57;44.79;101159.53;5100289;28;20080;-61
2021/10/06 09:13:34;;;;;;;5.03;3.10;;;;;;;29.59;44.55;101171.53;5107261;28;20131;-61
2021/10/06 09:16:02;;;;;;;6.55;2.80;;;;;;;29.34;43.47;101177.00;5107789;28;20071;-60
2021/10/06 09:18:31;;;;;;;7.18;2.42;;;;;;;29.04;42.59;101163.50;5099009;28;20403;-61
2021/10/06 09:20:59;;;;;;;;;;;;;;;28.87;47.17;101164.09;5103326;28;20052;-60
2021/10/06 09:23:29;;;;;;;5.95;2.95;;;;;;;29.52;43.94;101163.63;5083236;28;19924;-60
2021/10/06 09:26:01;;;;;;;2.92;2.10;;;;;;;30.11;42.93;101183.09;5094825;28;20067;-60
2021/10/06 09:28:38;;;;;;;4.38;2.10;;;;;;;29.93;42.67;101162.78;5099474;28;20048;-60
2021/10/06 09:31:14;;;;;;;3.70;2.05;;;;;;;30.15;41.81;101179.00;5102103;28;20127;-60
2021/10/06 09:33:43;;;;;;;6.32;2.47;;;;;;;30.38;40.98;101175.91;5098116;28;20040;-60
2021/10/06 09:36:18;;;;;;;3.75;2.53;;;;;;;30.53;40.84;101178.88;5112300;28;20126;-61
2021/10/06 09:38:47;;;;;;;4.28;2.72;;;;;;;30.59;40.12;101180.16;5095761;28;20480;-60
2021/10/06 09:41:49;;;;;;;6.47;2.78;;;;;;;30.77;41.19;101178.25;5102202;28;20079;-60
2021/10/06 09:44:21;;;;;;;3.95;2.28;;;;;;;31.23;39.58;101174.69;5074910;28;20535;-60
2021/10/06 09:46:59;;;;;;;4.63;2.97;;;;;;;31.47;38.83;101176.03;5099239;28;20051;-59
2021/10/06 09:49:29;;;;;;;4.10;2.28;;;;;;;31.40;38.11;101155.81;5104142;28;20134;-60
2021/10/06 09:52:14;;;;;;;3.63;2.60;;;;;;;31.79;38.26;101175.22;5099059;28;20052;-61
2021/10/06 09:55:02;;;;;;;3.83;2.40;;;;;;;32.03;37.41;101154.22;5110804;28;20082;-61
2021/10/06 09:57:36;;;;;;;3.10;2.10;;;;;;;32.20;36.33;101178.53;5094097;28;20459;-62
2021/10/06 10:00:07;;;;;;;2.72;1.80;;;;;;;32.10;35.84;101159.16;5104533;28;20063;-60
2021/10/06 10:02:36;;;;;;;2.45;1.33;;;;;;;32.09;35.67;101160.41;5099625;28;20126;-60
2021/10/06 10:05:05;;;;;;;2.97;1.50;;;;;;;32.16;34.89;101163.28;5105095;28;20515;-59
2021/10/06 10:07:32;;;;;;;3.03;1.80;;;;;;;32.41;35.40;101169.03;5103324;27;20118;-60
2021/10/06 10:10:02;;;;;;;5.68;1.80;;;;;;;32.20;34.15;101160.38;5101323;28;20126;-60
2021/10/06 10:12:29;;;;;;;3.67;1.90;;;;;;;32.18;34.68;101148.44;5111383;28;20583;-60
2021/10/06 10:14:56;;;;;;;3.38;2.05;;;;;;;32.61;34.71;101154.94;5113182;28;20424;-60
2021/10/06 10:17:24;;;;;;;4.72;1.80;;;;;;;33.13;33.62;101152.31;5088433;28;20131;-60
2021/10/06 10:20:15;;;;;;;3.15;1.80;;;;;;;33.40;33.37;101143.03;5099102;28;20067;-60
2021/10/06 10:22:55;;;;;;;6.78;1.83;;;;;;;33.55;33.63;101144.63;5098653;28;20074;-60
2021/10/06 10:25:27;;;;;;;2.53;1.70;;;;;;;33.76;32.44;101134.94;5099233;28;20036;-60
2021/10/06 10:28:16;;;;;;;4.28;1.92;;;;;;;34.00;32.79;101153.38;5094436;28;20583;-61
2021/10/06 10:30:55;;;;;;;2.33;1.58;;;;;;;34.23;32.87;101154.81;5097592;28;20062;-60
2021/10/06 10:33:40;;;;;;;;;;;;;;;33.83;35.06;101149.34;5096097;28;20050;-60
2021/10/06 10:36:29;;;;;;;2.33;1.50;;;;;;;34.14;34.17;101147.44;5093939;28;19962;-61
2021/10/06 10:38:56;;;;;;;3.15;1.77;;;;;;;34.47;32.06;101147.94;5106472;27;20075;-60
2021/10/06 10:41:52;;;;;;;3.13;1.73;;;;;;;34.75;32.82;101140.19;5098591;28;20052;-60
2021/10/06 10:44:33;;;;;;;2.10;1.60;;;;;;;35.02;31.94;101138.19;5093343;28;20507;-60
2021/10/06 10:47:04;;;;;;;2.75;1.77;;;;;;;35.23;30.69;101142.88;5104306;28;20147;-60
2021/10/06 10:49:46;;;;;;;4.32;1.58;;;;;;;35.42;31.53;101132.66;5100231;28;20067;-60
2021/10/06 10:52:15;;;;;;;2.33;1.80;;;;;;;35.62;30.26;101129.03;5096714;28;20118;-61
2021/10/06 10:54:49;;;;;;;3.72;1.40;;;;;;;35.87;29.45;101135.25;5095453;28;20098;-60
2021/10/06 10:57:36;;;;;;;2.40;1.48;;;;;;;35.88;29.98;101148.50;5106488;28;20044;-60
2021/10/06 11:00:04;;;;;;;3.78;1.77;;;;;;;35.99;29.06;101131.69;5108440;27;20071;-60
2021/10/06 11:02:40;;;;;;;2.47;1.50;;;;;;;36.24;29.19;101136.25;5107107;28;20083;-60
2021/10/06 11:05:09;;;;;;;4.22;1.80;;;;;;;37.00;28.19;101146.00;5105346;28;20067;-60
2021/10/06 11:07:50;;;;;;;4.43;1.67;;;;;;;38.36;27.27;101116.44;5096014;28;20459;-60
2021/10/06 11:10:20;;;;;;;2.92;1.70;;;;;;;38.45;26.23;101130.34;5101152;28;20566;-60
2021/10/06 11:13:03;;;;;;;2.10;1.40;;;;;;;37.80;27.61;101116.63;5110394;28;20082;-61
2021/10/06 11:15:32;;;;;;;1.70;1.42;;;;;;;37.67;27.16;101128.19;5097830;28;20055;-59
2021/10/06 11:18:22;;;;;;;3.42;2.08;;;;;;;37.52;27.80;101123.19;5100278;28;20549;-60
2021/10/06 11:20:58;;;;;;;2.42;1.63;;;;;;;37.52;27.30;101114.44;5099837;28;20492;-60
2021/10/06 11:23:31;;;;;;;4.72;2.20;;;;;;;37.41;27.32;101121.34;5099083;28;20070;-59
2021/10/06 11:26:10;;;;;;;3.30;1.90;;;;;;;37.41;26.86;101118.41;5098085;28;20128;-59